Time;durP1;ratioP1;P1;durP2;ratioP2;P2;SDS_P1;SDS_P2;PMS_P1;PMS_P2;Temp;Humidity;BMP_temperature;BMP_pressure;BME280_temperature;BME280_humidity;BME280_pressure;Samples;Min_cycle;Max_cycle;Signal;HPM_P1;HPM_P2
2021/01/28 00:02:31;;;;;;;49.70;15.00;;;;;;;-1.60;72.37;98451.20;2150733;82;21515;-70
2021/01/28 00:05:33;;;;;;;49.83;15.78;;;;;;;-1.61;72.56;98454.65;2178665;81;21729;-71
2021/01/28 00:08:35;;;;;;;57.93;17.52;;;;;;;-1.63;72.51;98457.70;2178855;81;21154;-70
2021/01/28 00:11:37;;;;;;;48.33;15.98;;;;;;;-1.58;72.86;98445.59;2178595;82;21163;-70
2021/01/28 00:14:40;;;;;;;45.55;14.98;;;;;;;-1.55;72.68;98454.98;2178826;82;21281;-71
2021/01/28 00:17:42;;;;;;;45.98;14.13;;;;;;;-1.58;72.65;98441.73;2178960;81;21158;-68
2021/01/28 00:20:44;;;;;;;48.02;15.95;;;;;;;-1.55;72.13;98442.12;2178593;81;21269;-70
2021/01/28 00:23:46;;;;;;;;;;;;;;;-1.55;72.11;98443.41;2181206;82;21731;-70
2021/01/28 00:26:49;;;;;;;36.47;12.10;;;;;;;-1.53;72.08;98438.64;2178695;82;20272;-69
2021/01/28 00:29:51;;;;;;;40.45;12.20;;;;;;;-1.58;71.48;98431.44;2179021;81;21277;-69
2021/01/28 00:32:53;;;;;;;44.10;14.30;;;;;;;-1.60;71.33;98431.92;2175524;81;21300;-70
2021/01/28 00:35:55;;;;;;;51.00;16.30;;;;;;;-1.56;72.35;98436.13;2161436;82;21263;-70
2021/01/28 00:38:57;;;;;;;44.35;13.55;;;;;;;-1.50;73.20;98439.88;2161607;82;21276;-63
2021/01/28 00:41:59;;;;;;;47.65;15.65;;;;;;;-1.51;72.15;98426.59;2161173;82;21131;-63
2021/01/28 00:45:02;;;;;;;43.85;12.80;;;;;;;-1.52;72.56;98430.06;2161223;82;21586;-63
2021/01/28 00:48:04;;;;;;;44.58;15.00;;;;;;;-1.55;71.97;98423.69;2161418;82;21578;-65
2021/01/28 00:51:06;;;;;;;50.43;15.10;;;;;;;-1.58;72.61;98417.29;2161398;82;21269;-63
2021/01/28 00:54:08;;;;;;;40.33;12.47;;;;;;;-1.55;73.08;98417.27;2161375;82;21725;-63
2021/01/28 00:57:10;;;;;;;34.73;10.98;;;;;;;-1.45;73.30;98412.34;2161215;82;21147;-63
2021/01/28 01:00:13;;;;;;;40.52;13.18;;;;;;;-1.41;72.78;98410.55;2161589;82;21285;-66
2021/01/28 01:03:15;;;;;;;37.00;12.33;;;;;;;-1.41;72.81;98407.56;2161413;82;21274;-64
2021/01/28 01:06:17;;;;;;;40.38;13.05;;;;;;;-1.45;72.52;98402.06;2161628;82;21293;-63
2021/01/28 01:09:19;;;;;;;44.48;13.68;;;;;;;-1.48;72.69;98407.69;2161333;82;21702;-65
2021/01/28 01:12:21;;;;;;;36.50;12.73;;;;;;;-1.55;72.58;98400.55;2161518;82;21285;-64
2021/01/28 01:15:23;;;;;;;44.88;14.80;;;;;;;-1.61;72.45;98405.78;2161148;82;21127;-63
2021/01/28 01:18:25;;;;;;;43.80;14.33;;;;;;;-1.67;72.80;98405.91;2161402;82;21277;-65
2021/01/28 01:21:28;;;;;;;43.50;14.03;;;;;;;-1.73;72.77;98406.86;2140216;82;21713;-63
2021/01/28 01:24:30;;;;;;;42.23;13.83;;;;;;;-1.83;72.72;98405.33;2161602;82;21290;-65
2021/01/28 01:27:32;;;;;;;47.78;15.90;;;;;;;-1.86;72.55;98402.81;2161237;82;21705;-65
2021/01/28 01:30:34;;;;;;;46.63;15.20;;;;;;;-1.89;72.86;98398.57;2161442;82;21717;-67
2021/01/28 01:33:37;;;;;;;51.00;16.12;;;;;;;-1.87;73.28;98394.69;2161038;82;21119;-66
2021/01/28 01:36:39;;;;;;;46.42;16.00;;;;;;;-1.84;73.54;98390.35;2140291;82;21295;-69
2021/01/28 01:39:41;;;;;;;48.55;15.95;;;;;;;-1.81;73.25;98377.44;2161547;82;21269;-67
2021/01/28 01:42:43;;;;;;;50.23;17.67;;;;;;;-1.83;73.39;98374.03;2161083;82;21172;-68
2021/01/28 01:45:45;;;;;;;52.03;18.17;;;;;;;-1.81;73.67;98377.44;2161521;82;21281;-68
2021/01/28 01:48:47;;;;;;;50.95;17.37;;;;;;;-1.75;73.58;98372.17;2161196;82;21749;-65
2021/01/28 01:51:50;;;;;;;52.62;17.70;;;;;;;-1.76;73.52;98370.92;2161182;82;21698;-64
2021/01/28 01:54:52;;;;;;;49.45;17.17;;;;;;;-1.70;73.77;98368.67;2161524;82;21155;-68
2021/01/28 01:57:54;;;;;;;49.80;17.10;;;;;;;-1.69;73.48;98369.92;2161256;82;21590;-66
2021/01/28 02:00:57;;;;;;;51.40;17.10;;;;;;;-1.71;73.54;98365.68;2161081;82;21282;-69
2021/01/28 02:03:59;;;;;;;48.80;17.37;;;;;;;-1.72;73.49;98350.70;2161558;82;21278;-70
2021/01/28 02:07:01;;;;;;;53.02;17.35;;;;;;;-1.76;73.26;98348.61;2140505;82;21741;-70
2021/01/28 02:10:03;;;;;;;58.87;21.10;;;;;;;-1.80;73.47;98345.69;2161269;82;21325;-69
2021/01/28 02:13:05;;;;;;;54.65;18.77;;;;;;;-1.76;73.55;98349.06;2161199;82;21122;-69
2021/01/28 02:16:08;;;;;;;50.48;19.15;;;;;;;-1.75;73.39;98342.60;2161523;82;21313;-70
2021/01/28 02:19:10;;;;;;;59.35;20.45;;;;;;;-1.80;73.36;98337.97;2161112;82;21293;-65
2021/01/28 02:22:12;;;;;;;48.83;16.97;;;;;;;-1.89;73.23;98337.32;2161085;82;21150;-63
2021/01/28 02:25:14;;;;;;;47.75;17.10;;;;;;;-1.95;73.40;98332.69;2161110;82;21155;-64
2021/01/28 02:28:16;;;;;;;48.25;17.12;;;;;;;-2.01;73.40;98330.66;2161314;82;21698;-66
2021/01/28 02:31:18;;;;;;;49.10;16.42;;;;;;;-2.06;73.42;98335.05;2161186;82;21143;-66
2021/01/28 02:34:20;;;;;;;45.80;15.80;;;;;;;-2.10;73.33;98324.83;2166191;81;21284;-65
2021/01/28 02:37:22;;;;;;;47.83;16.52;;;;;;;-2.18;73.42;98336.12;2171476;82;21272;-63
2021/01/28 02:40:25;;;;;;;47.03;16.90;;;;;;;-2.22;73.79;98328.89;2171327;82;21562;-63
2021/01/28 02:43:28;;;;;;;47.48;17.40;;;;;;;-2.23;73.72;98323.33;2171204;82;21162;-63
2021/01/28 02:46:30;;;;;;;45.90;16.85;;;;;;;-2.36;73.58;98326.99;2171212;82;21143;-64
2021/01/28 02:49:32;;;;;;;49.58;17.02;;;;;;;-2.44;73.62;98318.98;2171341;82;21716;-64
2021/01/28 02:52:35;;;;;;;42.73;16.27;;;;;;;-2.60;73.61;98320.11;2171255;82;21257;-63
2021/01/28 02:55:38;;;;;;;50.17;19.73;;;;;;;-2.76;73.85;98328.46;2171076;82;21317;-64
2021/01/28 02:58:40;;;;;;;;;;;;;;;-2.79;74.21;98320.81;2173871;82;21570;-64
2021/01/28 03:01:42;;;;;;;43.83;15.17;;;;;;;-2.90;74.17;98310.72;2142087;82;20138;-64
2021/01/28 03:04:44;;;;;;;42.48;14.05;;;;;;;-2.99;74.54;98315.56;2171493;82;21293;-63
2021/01/28 03:07:47;;;;;;;40.60;14.00;;;;;;;-3.03;74.50;98302.77;2171863;82;21142;-67
2021/01/28 03:10:49;;;;;;;42.08;15.28;;;;;;;-3.14;74.64;98299.09;2171591;82;21706;-66
2021/01/28 03:13:51;;;;;;;44.00;14.05;;;;;;;-3.16;74.79;98297.83;2171384;82;21259;-66
2021/01/28 03:16:53;;;;;;;42.45;15.65;;;;;;;-3.27;75.15;98286.03;2171368;82;21269;-69
2021/01/28 03:19:55;;;;;;;39.48;14.95;;;;;;;-3.27;75.15;98286.03;2171638;82;21273;-66
2021/01/28 03:22:58;;;;;;;42.50;15.53;;;;;;;-3.25;74.71;98292.81;2171535;82;21709;-66
2021/01/28 03:26:00;;;;;;;42.83;14.83;;;;;;;-3.24;75.04;98289.39;2171372;82;21297;-65
2021/01/28 03:29:02;;;;;;;43.38;15.68;;;;;;;-3.29;74.97;98292.88;2141786;82;21288;-64
2021/01/28 03:32:04;;;;;;;43.83;15.10;;;;;;;-3.41;74.58;98295.19;2171645;82;21320;-63
2021/01/28 03:35:06;;;;;;;46.45;16.07;;;;;;;-3.66;74.62;98299.34;2164788;81;21191;-63
2021/01/28 03:38:08;;;;;;;63.23;20.80;;;;;;;-3.83;74.90;98296.98;2161476;82;21158;-63
2021/01/28 03:41:10;;;;;;;53.10;19.17;;;;;;;-3.94;75.05;98295.80;2161198;82;21269;-63
2021/01/28 03:44:12;;;;;;;47.40;16.35;;;;;;;-3.97;75.56;98292.44;2161327;82;21717;-66
2021/01/28 03:47:14;;;;;;;51.02;15.75;;;;;;;-4.00;75.76;98279.22;2161670;82;21281;-66
2021/01/28 03:50:16;;;;;;;39.67;13.30;;;;;;;-4.06;75.52;98277.58;2161794;82;21285;-70
2021/01/28 03:53:19;;;;;;;46.63;15.00;;;;;;;-4.15;75.58;98271.70;2161576;82;21285;-65
2021/01/28 03:56:21;;;;;;;38.80;14.93;;;;;;;-4.19;75.96;98265.33;2161293;82;21702;-65
2021/01/28 03:59:24;;;;;;;42.55;14.95;;;;;;;-4.22;75.89;98264.53;2161074;82;21728;-62
2021/01/28 04:02:26;;;;;;;44.27;15.08;;;;;;;-4.23;75.48;98270.06;2161235;82;21143;-62
2021/01/28 04:05:28;;;;;;;43.68;16.82;;;;;;;-4.35;75.70;98263.36;2161666;82;21325;-62
2021/01/28 04:08:31;;;;;;;49.50;16.75;;;;;;;-4.42;75.80;98261.73;2161139;82;21579;-62
2021/01/28 04:11:33;;;;;;;46.60;15.85;;;;;;;-4.40;75.97;98262.55;2161682;82;21289;-63
2021/01/28 04:14:35;;;;;;;40.60;14.87;;;;;;;-4.42;75.62;98253.20;2161359;82;21711;-64
2021/01/28 04:17:38;;;;;;;50.70;16.52;;;;;;;-4.60;75.38;98242.70;2161173;82;21297;-63
2021/01/28 04:20:40;;;;;;;42.55;14.07;;;;;;;-4.78;75.85;98234.33;2140269;82;21550;-63
2021/01/28 04:23:42;;;;;;;43.02;14.80;;;;;;;-4.65;76.02;98235.52;2161314;82;21254;-63
2021/01/28 04:26:44;;;;;;;45.92;14.43;;;;;;;-4.66;75.91;98237.64;2161272;82;21598;-63
2021/01/28 04:29:46;;;;;;;44.48;14.58;;;;;;;-4.72;75.84;98238.11;2140861;82;21285;-62
2021/01/28 04:32:49;;;;;;;44.00;15.18;;;;;;;-4.80;75.90;98231.36;2161531;82;21141;-63
2021/01/28 04:35:51;;;;;;;47.23;15.55;;;;;;;-4.83;76.07;98236.51;2169298;81;21305;-65
2021/01/28 04:38:53;;;;;;;56.98;19.07;;;;;;;-4.84;76.17;98229.69;2171766;82;21123;-63
2021/01/28 04:41:55;;;;;;;53.98;17.95;;;;;;;-5.00;75.98;98227.25;2171546;82;21729;-62
2021/01/28 04:44:57;;;;;;;50.65;16.10;;;;;;;-5.27;76.23;98220.22;2141657;82;21296;-63
2021/01/28 04:47:59;;;;;;;42.90;16.60;;;;;;;-5.42;76.53;98228.83;2171305;82;21285;-62
2021/01/28 04:51:01;;;;;;;51.15;15.45;;;;;;;-5.44;76.85;98223.33;2171782;82;21107;-63
2021/01/28 04:54:03;;;;;;;51.28;16.87;;;;;;;-5.33;77.34;98220.27;2171458;82;21305;-62
2021/01/28 04:57:06;;;;;;;53.15;17.57;;;;;;;-5.16;77.22;98220.56;2171756;82;21142;-62
2021/01/28 05:00:08;;;;;;;48.23;17.65;;;;;;;-5.11;77.01;98225.23;2171549;82;21276;-62
2021/01/28 05:03:10;;;;;;;50.25;16.17;;;;;;;-5.12;76.59;98222.25;2171551;82;21709;-66
2021/01/28 05:06:12;;;;;;;48.28;15.68;;;;;;;-5.16;76.62;98220.13;2171535;82;21304;-67
2021/01/28 05:09:14;;;;;;;48.65;16.37;;;;;;;-5.12;77.09;98222.25;2171751;82;21153;-64
2021/01/28 05:12:16;;;;;;;105.47;31.20;;;;;;;-5.05;76.88;98210.67;2171780;82;21178;-70
2021/01/28 05:15:19;;;;;;;57.40;18.95;;;;;;;-5.08;76.31;98208.58;2171300;82;21296;-69
2021/01/28 05:18:21;;;;;;;58.65;18.82;;;;;;;-5.11;76.58;98208.61;2171358;82;21787;-68
2021/01/28 05:21:23;;;;;;;67.15;23.60;;;;;;;-5.06;76.87;98197.89;2171601;82;21138;-68
2021/01/28 05:24:25;;;;;;;74.35;26.00;;;;;;;-4.85;77.20;98193.47;2171296;82;21264;-68
2021/01/28 05:27:27;;;;;;;;;;;;;;;-4.59;76.82;98193.22;2173866;82;22048;-65
2021/01/28 05:30:30;;;;;;;57.88;19.37;;;;;;;-4.53;76.56;98186.30;2171261;82;20230;-67
2021/01/28 05:33:32;;;;;;;49.40;17.80;;;;;;;-4.53;76.34;98182.45;2171504;82;21111;-71
2021/01/28 05:36:34;;;;;;;49.10;17.92;;;;;;;-4.49;76.15;98179.45;2161811;81;21148;-62
2021/01/28 05:39:36;;;;;;;50.73;16.37;;;;;;;-4.47;76.09;98171.75;2161070;82;21285;-65
2021/01/28 05:42:38;;;;;;;44.08;15.25;;;;;;;-4.41;76.13;98175.52;2161599;82;21321;-63
2021/01/28 05:45:41;;;;;;;57.85;18.12;;;;;;;-4.42;75.81;98173.84;2161057;82;21171;-62
2021/01/28 05:48:43;;;;;;;60.33;20.27;;;;;;;-4.46;75.93;98165.77;2161182;82;21710;-64
2021/01/28 05:51:45;;;;;;;60.48;23.30;;;;;;;-4.54;75.90;98167.98;2161141;82;21135;-62
2021/01/28 05:54:47;;;;;;;78.15;34.80;;;;;;;-4.64;76.00;98151.03;2161129;82;21103;-62
2021/01/28 05:57:49;;;;;;;61.80;24.37;;;;;;;-4.64;76.00;98151.03;2161572;82;21290;-62
2021/01/28 06:00:51;;;;;;;58.28;21.65;;;;;;;-4.65;76.09;98160.84;2161415;82;21285;-65
2021/01/28 06:03:54;;;;;;;61.90;22.02;;;;;;;-4.69;76.26;98156.63;2161117;82;21143;-62
2021/01/28 06:06:56;;;;;;;63.48;22.58;;;;;;;-4.73;76.01;98151.12;2161564;82;21163;-62
2021/01/28 06:09:58;;;;;;;66.33;23.47;;;;;;;-4.78;75.98;98146.50;2161341;82;21313;-64
2021/01/28 06:13:00;;;;;;;67.67;25.15;;;;;;;-4.87;76.08;98136.76;2161548;82;21284;-62
2021/01/28 06:16:02;;;;;;;67.40;24.92;;;;;;;-4.84;76.40;98145.25;2161358;82;21143;-62
2021/01/28 06:19:04;;;;;;;76.87;27.07;;;;;;;-4.79;76.42;98142.23;2161509;82;21143;-62
2021/01/28 06:22:06;;;;;;;76.50;28.73;;;;;;;-4.76;76.34;98139.64;2161322;82;21697;-62
2021/01/28 06:25:09;;;;;;;79.82;30.70;;;;;;;-4.78;76.27;98131.98;2161526;82;21306;-62
2021/01/28 06:28:11;;;;;;;91.08;33.67;;;;;;;-4.79;76.31;98133.28;2161162;82;21144;-62
2021/01/28 06:31:13;;;;;;;86.57;35.35;;;;;;;-4.79;76.20;98133.28;2161512;82;21266;-62
2021/01/28 06:34:15;;;;;;;86.67;32.63;;;;;;;-4.78;76.52;98131.98;2162674;82;21709;-62
2021/01/28 06:37:17;;;;;;;85.62;31.75;;;;;;;-4.67;76.49;98131.01;2178988;81;21154;-62
2021/01/28 06:40:20;;;;;;;84.45;32.48;;;;;;;-4.70;76.48;98121.23;2178707;81;21273;-67
2021/01/28 06:43:22;;;;;;;80.70;32.73;;;;;;;-4.64;76.60;98120.32;2150786;82;21312;-67
2021/01/28 06:46:24;;;;;;;;;;;;;;;-4.54;76.30;98117.20;2181063;81;21736;-66
2021/01/28 06:49:26;;;;;;;82.40;32.47;;;;;;;-4.57;76.09;98112.98;2178604;82;20221;-62
2021/01/28 06:52:28;;;;;;;86.92;33.02;;;;;;;-4.61;76.21;98106.20;2178705;81;22451;-65
2021/01/28 06:55:31;;;;;;;83.78;31.97;;;;;;;-4.52;76.30;98105.25;2178500;81;21321;-65
2021/01/28 06:58:33;;;;;;;79.95;31.15;;;;;;;-4.39;76.36;98104.22;2178913;82;21150;-64
2021/01/28 07:01:35;;;;;;;86.85;31.20;;;;;;;-4.27;76.43;98095.53;2178490;81;21268;-67
2021/01/28 07:04:37;;;;;;;76.55;29.90;;;;;;;-4.13;76.11;98090.23;2178823;81;21705;-67
2021/01/28 07:07:39;;;;;;;83.42;31.17;;;;;;;-4.05;75.96;98087.14;2178464;82;21114;-64
2021/01/28 07:10:41;;;;;;;87.02;32.40;;;;;;;-3.96;75.95;98089.17;2178628;81;21563;-65
2021/01/28 07:13:44;;;;;;;77.45;30.02;;;;;;;-3.90;76.00;98083.50;2178759;82;21269;-63
2021/01/28 07:16:46;;;;;;;75.50;29.35;;;;;;;-3.83;75.89;98086.83;2178925;82;21119;-63
2021/01/28 07:19:48;;;;;;;73.87;31.17;;;;;;;-3.69;75.65;98078.94;2178798;81;21170;-63
2021/01/28 07:22:51;;;;;;;88.62;34.43;;;;;;;-3.60;75.77;98069.81;2178466;82;21588;-63
2021/01/28 07:25:53;;;;;;;103.83;44.77;;;;;;;-3.43;75.66;98066.11;2178758;81;21733;-62
2021/01/28 07:28:55;;;;;;;109.87;42.98;;;;;;;-3.29;75.40;98057.73;2178798;81;21276;-63
2021/01/28 07:31:57;;;;;;;96.53;40.55;;;;;;;-3.14;75.03;98043.37;2178717;81;21226;-63
2021/01/28 07:35:00;;;;;;;92.80;38.35;;;;;;;-3.03;74.80;98035.48;2174509;82;21579;-64
2021/01/28 07:38:02;;;;;;;104.75;43.92;;;;;;;-2.87;74.59;98030.06;2161078;82;21152;-63
2021/01/28 07:41:04;;;;;;;82.37;34.73;;;;;;;-2.68;74.48;98022.83;2161511;82;21277;-67
2021/01/28 07:44:06;;;;;;;108.67;39.42;;;;;;;-2.49;74.28;98022.84;2161123;82;21131;-63
2021/01/28 07:47:08;;;;;;;105.50;38.83;;;;;;;-2.27;74.11;98014.66;2161463;82;21300;-65
2021/01/28 07:50:10;;;;;;;106.70;39.30;;;;;;;-2.03;73.69;98011.98;2161433;82;21143;-66
2021/01/28 07:53:12;;;;;;;125.80;45.25;;;;;;;-1.88;72.75;98013.37;2161232;82;21266;-68
2021/01/28 07:56:14;;;;;;;127.85;47.80;;;;;;;-1.81;72.28;98007.62;2161445;82;21717;-69
2021/01/28 07:59:17;;;;;;;96.95;41.48;;;;;;;-1.73;72.43;97998.45;2161641;82;21139;-69
2021/01/28 08:02:19;;;;;;;80.00;33.73;;;;;;;-1.66;72.25;97996.13;2161683;82;21144;-67
2021/01/28 08:05:22;;;;;;;80.12;33.48;;;;;;;-1.51;71.87;97988.01;2161386;82;21278;-69
2021/01/28 08:08:24;;;;;;;70.92;30.35;;;;;;;-1.40;71.58;97981.31;2161514;82;21277;-68
2021/01/28 08:11:26;;;;;;;69.32;31.77;;;;;;;-1.29;71.43;97982.33;2140131;82;21266;-65
2021/01/28 08:14:31;;;;;;;67.95;30.55;;;;;;;-1.24;71.35;97970.17;2161077;82;21147;-65
2021/01/28 08:17:33;;;;;;;70.25;27.73;;;;;;;-1.11;70.57;97967.66;2161667;82;21289;-64
2021/01/28 08:20:35;;;;;;;63.92;26.65;;;;;;;-1.01;71.11;97965.67;2161411;82;21282;-65
2021/01/28 08:23:37;;;;;;;61.48;26.25;;;;;;;-0.84;70.83;97969.06;2161336;82;21760;-67
2021/01/28 08:26:40;;;;;;;62.43;26.87;;;;;;;-0.72;70.57;97966.14;2161289;82;21297;-64
2021/01/28 08:29:42;;;;;;;54.45;23.92;;;;;;;-0.53;70.58;97971.59;2161174;82;21107;-64
2021/01/28 08:32:45;;;;;;;;;;;;;;;-0.37;70.21;97973.26;2163619;82;21165;-66
2021/01/28 08:35:47;;;;;;;59.40;24.25;;;;;;;-0.20;69.60;97969.34;2161390;81;20127;-71
2021/01/28 08:38:49;;;;;;;51.68;22.27;;;;;;;-0.06;68.91;97967.17;2161163;82;21127;-71
2021/01/28 08:41:51;;;;;;;54.25;21.68;;;;;;;0.04;68.61;97959.95;2161396;82;21705;-64
2021/01/28 08:44:53;;;;;;;53.55;21.93;;;;;;;0.09;68.41;97951.64;2161155;82;21120;-69
2021/01/28 08:47:56;;;;;;;50.55;22.05;;;;;;;0.14;68.61;97949.77;2161382;82;21302;-70
2021/01/28 08:50:58;;;;;;;50.67;22.30;;;;;;;0.25;68.02;97943.41;2161636;82;21310;-71
2021/01/28 08:54:00;;;;;;;54.48;24.25;;;;;;;0.32;68.06;97934.56;2161153;82;21143;-64
2021/01/28 08:57:03;;;;;;;54.73;24.55;;;;;;;0.49;68.38;97932.70;2161028;82;21163;-63
2021/01/28 09:00:05;;;;;;;54.23;20.82;;;;;;;0.61;67.97;97935.30;2161315;82;21124;-64
2021/01/28 09:03:08;;;;;;;53.83;23.42;;;;;;;0.73;68.21;97930.98;2161610;82;21146;-65
2021/01/28 09:06:10;;;;;;;48.98;23.45;;;;;;;0.83;67.64;97929.78;2140117;82;21143;-63
2021/01/28 09:09:12;;;;;;;51.83;21.65;;;;;;;0.96;66.46;97931.47;2161384;82;21286;-64
2021/01/28 09:12:14;;;;;;;52.75;20.45;;;;;;;1.05;67.18;97927.70;2161264;82;21729;-64
2021/01/28 09:15:16;;;;;;;51.15;20.72;;;;;;;1.19;65.78;97928.04;2161366;82;21144;-64
2021/01/28 09:18:19;;;;;;;50.33;20.12;;;;;;;1.33;66.69;97918.92;2140032;82;21765;-67
2021/01/28 09:21:21;;;;;;;50.85;21.27;;;;;;;1.45;66.50;97918.45;2161237;82;21583;-68
2021/01/28 09:24:25;;;;;;;49.23;20.32;;;;;;;1.59;66.38;97907.56;2161080;82;21286;-64
2021/01/28 09:27:27;;;;;;;47.08;19.75;;;;;;;1.75;66.13;97902.63;2140044;82;21159;-64
2021/01/28 09:30:29;;;;;;;46.63;18.55;;;;;;;1.89;65.08;97895.16;2161106;82;21131;-66
2021/01/28 09:33:32;;;;;;;113.20;47.88;;;;;;;2.01;65.84;97886.50;2161450;82;21722;-66
2021/01/28 09:36:35;;;;;;;47.27;20.17;;;;;;;2.22;64.54;97883.48;2170877;81;21154;-71
2021/01/28 09:39:37;;;;;;;43.58;18.67;;;;;;;2.43;63.62;97877.39;2178615;81;21154;-65
2021/01/28 09:42:40;;;;;;;42.45;17.67;;;;;;;2.64;64.82;97865.70;2178998;82;21142;-65
2021/01/28 09:45:42;;;;;;;41.05;17.87;;;;;;;3.01;64.33;97858.87;2178499;82;21143;-64
2021/01/28 09:48:44;;;;;;;43.05;16.05;;;;;;;3.34;62.04;97858.23;2178927;82;21284;-64
2021/01/28 09:51:46;;;;;;;42.05;17.75;;;;;;;3.29;62.51;97859.75;2178914;82;21280;-66
2021/01/28 09:54:48;;;;;;;39.50;16.07;;;;;;;3.36;62.89;97849.94;2179026;82;21293;-68
2021/01/28 09:57:51;;;;;;;42.73;16.62;;;;;;;3.47;61.43;97842.94;2178960;81;21138;-66
2021/01/28 10:00:53;;;;;;;38.30;15.53;;;;;;;3.39;61.70;97825.16;2178994;82;21150;-67
2021/01/28 10:03:55;;;;;;;41.45;15.00;;;;;;;3.39;61.70;97825.16;2178649;81;21264;-65
2021/01/28 10:06:57;;;;;;;38.20;15.08;;;;;;;3.49;61.43;97819.52;2178500;82;21281;-66
2021/01/28 10:10:01;;;;;;;43.60;14.98;;;;;;;3.38;62.06;97816.16;2178615;82;21551;-64
2021/01/28 10:13:03;;;;;;;36.90;15.00;;;;;;;3.38;61.33;97810.98;2178378;81;21167;-64
2021/01/28 10:16:06;;;;;;;35.70;15.72;;;;;;;3.27;61.37;97801.11;2150707;82;21285;-65
2021/01/28 10:19:08;;;;;;;35.20;13.78;;;;;;;3.22;62.06;97798.74;2178498;82;21301;-69
2021/01/28 10:22:11;;;;;;;35.92;14.43;;;;;;;3.25;61.63;97801.66;2178449;82;21772;-70
2021/01/28 10:25:13;;;;;;;34.88;14.30;;;;;;;3.17;62.66;97794.22;2178605;82;21791;-68
2021/01/28 10:28:16;;;;;;;42.62;17.95;;;;;;;3.19;61.91;97779.46;2178132;82;21079;-67
2021/01/28 10:31:18;;;;;;;42.85;16.62;;;;;;;3.05;62.37;97787.88;2178737;81;21729;-64
2021/01/28 10:34:21;;;;;;;46.95;20.08;;;;;;;2.97;62.04;97780.08;2178745;81;21261;-64
2021/01/28 10:37:23;;;;;;;42.75;17.42;;;;;;;2.93;62.73;97769.88;2178310;81;21154;-66
2021/01/28 10:40:25;;;;;;;42.23;17.60;;;;;;;3.01;63.73;97773.84;2178916;81;21146;-63
2021/01/28 10:43:28;;;;;;;44.85;18.00;;;;;;;3.01;62.51;97756.55;2178491;81;21292;-64
2021/01/28 10:46:31;;;;;;;43.35;17.37;;;;;;;3.13;63.50;97752.52;2178331;81;21292;-66
2021/01/28 10:49:33;;;;;;;43.58;16.65;;;;;;;3.26;63.13;97750.18;2178638;81;21575;-69
2021/01/28 10:52:35;;;;;;;42.43;17.87;;;;;;;3.24;60.07;97737.77;2178735;82;21696;-64
2021/01/28 10:55:37;;;;;;;41.98;17.07;;;;;;;3.09;62.73;97750.55;2178498;82;21300;-66
2021/01/28 10:58:40;;;;;;;41.50;17.27;;;;;;;3.16;62.25;97743.77;2178830;81;21290;-65
2021/01/28 11:01:42;;;;;;;;;;;;;;;3.19;61.99;97745.77;2181091;82;21713;-64
2021/01/28 11:04:44;;;;;;;40.43;16.40;;;;;;;2.98;61.24;97739.86;2178540;82;20238;-68
2021/01/28 11:07:47;;;;;;;42.35;18.15;;;;;;;2.93;61.29;97728.86;2178690;81;21150;-64
2021/01/28 11:10:49;;;;;;;48.33;18.90;;;;;;;2.79;62.30;97728.23;2151081;82;21276;-64
2021/01/28 11:13:54;;;;;;;44.65;18.60;;;;;;;2.79;63.63;97716.58;2178923;82;21171;-66
2021/01/28 11:16:56;;;;;;;39.27;15.85;;;;;;;2.89;62.53;97705.34;2178747;81;21123;-63
2021/01/28 11:19:59;;;;;;;43.38;17.00;;;;;;;2.87;61.42;97695.02;2178761;81;21713;-66
2021/01/28 11:23:01;;;;;;;;;;;;;;;2.69;62.76;97698.51;2181155;81;21277;-64
2021/01/28 11:26:03;;;;;;;40.57;16.63;;;;;;;2.70;63.84;97691.96;2179117;82;20452;-65
2021/01/28 11:29:06;;;;;;;45.80;18.12;;;;;;;2.77;63.16;97688.17;2178608;82;21280;-64
2021/01/28 11:32:09;;;;;;;42.35;17.25;;;;;;;2.81;63.78;97687.55;2178672;81;21280;-67
2021/01/28 11:35:12;;;;;;;45.85;18.70;;;;;;;2.76;63.66;97682.59;2178774;82;21296;-67
2021/01/28 11:38:14;;;;;;;;;;;;;;;2.71;63.86;97678.08;2181060;81;21269;-69
2021/01/28 11:41:16;;;;;;;47.43;21.40;;;;;;;2.75;64.08;97669.26;2178696;82;20229;-66
2021/01/28 11:44:18;;;;;;;46.83;18.90;;;;;;;2.80;63.50;97664.31;2178939;82;21146;-68
2021/01/28 11:47:21;;;;;;;47.43;18.57;;;;;;;2.76;63.61;97663.17;2178708;82;21288;-66
2021/01/28 11:50:24;;;;;;;49.98;19.98;;;;;;;2.77;63.50;97664.86;2178608;81;21171;-69
2021/01/28 11:53:28;;;;;;;47.43;20.02;;;;;;;2.74;63.31;97657.25;2178490;81;21447;-69
2021/01/28 11:56:30;;;;;;;;;;;;;;;2.72;63.43;97652.58;2181222;82;21296;-71
2021/01/28 11:59:33;;;;;;;50.43;20.82;;;;;;;2.74;63.53;97643.44;2178612;82;20134;-68
2021/01/28 12:02:35;;;;;;;51.35;21.37;;;;;;;2.73;63.58;97637.87;2178975;81;21082;-70
2021/01/28 12:05:37;;;;;;;47.70;20.77;;;;;;;2.67;63.61;97626.52;2179100;82;21157;-71
2021/01/28 12:08:40;;;;;;;50.50;21.17;;;;;;;2.64;63.97;97627.97;2178701;81;21122;-70
2021/01/28 12:11:42;;;;;;;50.52;20.97;;;;;;;2.68;64.53;97624.33;2178724;81;21161;-72
2021/01/28 12:14:45;;;;;;;;;;;;;;;2.74;64.21;97615.81;2181191;82;21296;-68
2021/01/28 12:17:47;;;;;;;48.47;21.60;;;;;;;2.86;63.68;97611.78;2178722;82;20153;-67
2021/01/28 12:20:49;;;;;;;47.35;19.50;;;;;;;2.96;63.57;97604.40;2178710;82;21825;-72
2021/01/28 12:23:51;;;;;;;53.80;22.02;;;;;;;3.06;63.58;97600.43;2179074;81;21277;-67
2021/01/28 12:26:55;;;;;;;63.00;27.05;;;;;;;3.03;63.13;97592.81;2179042;81;21162;-67
2021/01/28 12:30:00;;;;;;;58.35;24.07;;;;;;;3.05;64.25;97594.86;2178646;82;21769;-65
2021/01/28 12:33:02;;;;;;;55.55;24.75;;;;;;;3.08;64.30;97602.47;2178725;82;21280;-68
2021/01/28 12:36:04;;;;;;;67.08;26.55;;;;;;;3.00;63.61;97596.83;2176555;81;21281;-67
2021/01/28 12:39:06;;;;;;;60.78;25.32;;;;;;;2.84;63.81;97592.87;2161146;82;21120;-71
2021/01/28 12:42:08;;;;;;;61.48;25.15;;;;;;;2.65;64.15;97591.64;2161189;82;21281;-65
2021/01/28 12:45:11;;;;;;;61.58;28.45;;;;;;;2.34;64.33;97594.42;2161150;82;21179;-67
2021/01/28 12:48:13;;;;;;;63.75;27.93;;;;;;;2.13;65.28;97591.08;2161165;82;21195;-66
2021/01/28 12:51:15;;;;;;;66.33;29.52;;;;;;;2.02;65.79;97582.52;2161195;82;21104;-65
2021/01/28 12:54:18;;;;;;;65.00;28.85;;;;;;;1.93;66.20;97572.60;2161184;82;21300;-66
2021/01/28 12:57:20;;;;;;;60.75;27.17;;;;;;;1.86;66.79;97569.92;2161623;82;21150;-66
2021/01/28 13:00:22;;;;;;;64.67;28.52;;;;;;;1.82;66.98;97554.98;2161149;82;21131;-68
2021/01/28 13:03:24;;;;;;;60.05;26.75;;;;;;;1.79;67.55;97560.77;2161358;82;21274;-66
2021/01/28 13:06:26;;;;;;;59.63;27.85;;;;;;;1.78;67.94;97561.66;2161164;82;21143;-66
2021/01/28 13:09:29;;;;;;;58.28;26.77;;;;;;;1.73;68.38;97558.83;2161553;82;21155;-66
2021/01/28 13:12:31;;;;;;;58.83;25.85;;;;;;;1.68;68.41;97560.80;2161149;82;21128;-67
2021/01/28 13:15:35;;;;;;;58.83;25.60;;;;;;;1.62;68.62;97566.69;2161151;82;21288;-66
2021/01/28 13:18:38;;;;;;;56.80;23.87;;;;;;;1.53;68.98;97563.59;2161019;82;21124;-69
2021/01/28 13:21:41;;;;;;;69.67;31.12;;;;;;;1.51;69.33;97551.22;2161340;82;21285;-66
2021/01/28 13:24:43;;;;;;;62.45;27.67;;;;;;;1.49;69.48;97554.77;2161268;82;21119;-65
2021/01/28 13:27:45;;;;;;;78.42;33.38;;;;;;;1.55;69.53;97550.61;2161209;82;21587;-66
2021/01/28 13:30:47;;;;;;;60.92;27.70;;;;;;;1.60;69.66;97543.50;2161612;82;21277;-65
2021/01/28 13:33:49;;;;;;;61.83;27.50;;;;;;;1.65;70.09;97534.23;2161230;82;21732;-67
2021/01/28 13:36:51;;;;;;;74.70;34.03;;;;;;;1.60;70.17;97537.03;2166209;82;21186;-67
2021/01/28 13:39:54;;;;;;;68.60;31.62;;;;;;;1.53;70.58;97540.34;2178850;82;21143;-65
2021/01/28 13:42:56;;;;;;;65.97;28.90;;;;;;;1.46;70.68;97535.06;2178655;81;21569;-67
2021/01/28 13:45:58;;;;;;;64.70;27.50;;;;;;;1.42;70.67;97533.52;2178953;81;21325;-68
2021/01/28 13:49:01;;;;;;;62.25;27.95;;;;;;;1.38;71.34;97530.25;2178597;81;21281;-65
2021/01/28 13:52:04;;;;;;;69.92;31.10;;;;;;;1.31;71.37;97526.72;2178853;82;21300;-66
2021/01/28 13:55:06;;;;;;;63.42;29.95;;;;;;;1.35;71.32;97523.93;2178530;82;21107;-66
2021/01/28 13:58:08;;;;;;;59.35;27.60;;;;;;;1.38;71.34;97513.45;2178759;82;21332;-65
2021/01/28 14:01:10;;;;;;;64.20;28.35;;;;;;;1.38;71.46;97512.16;2178593;81;21281;-65
2021/01/28 14:04:12;;;;;;;61.75;27.30;;;;;;;1.37;71.26;97516.11;2178548;81;21261;-66